sensor_id;sensor_type;location;lat;lon;timestamp;pressure;altitude;pressure_sealevel;temperature;humidity
35151;BME280;55720;51.972;4.624;2022-11-15T00:00:14;100983.53;;;7.08;100.00
35151;BME280;55720;51.972;4.624;2022-11-15T00:02:39;100996.69;;;7.20;100.00
35151;BME280;55720;51.972;4.624;2022-11-15T00:05:04;100997.25;;;7.17;100.00
35151;BME280;55720;51.972;4.624;2022-11-15T00:07:30;100992.84;;;7.07;100.00
35151;BME280;55720;51.972;4.624;2022-11-15T00:09:55;101004.56;;;7.08;100.00
35151;BME280;55720;51.972;4.624;2022-11-15T00:12:20;101019.53;;;7.10;100.00
35151;BME280;55720;51.972;4.624;2022-11-15T00:14:46;101021.84;;;7.17;100.00
35151;BME280;55720;51.972;4.624;2022-11-15T00:17:11;101030.56;;;7.19;100.00
35151;BME280;55720;51.972;4.624;2022-11-15T00:19:36;101034.69;;;7.16;100.00
35151;BME280;55720;51.972;4.624;2022-11-15T00:22:02;101033.25;;;7.32;100.00
35151;BME280;55720;51.972;4.624;2022-11-15T00:24:27;101031.00;;;7.34;100.00
35151;BME280;55720;51.972;4.624;2022-11-15T00:26:52;101013.22;;;7.37;100.00
35151;BME280;55720;51.972;4.624;2022-11-15T00:29:18;101028.47;;;7.38;100.00
35151;BME280;55720;51.972;4.624;2022-11-15T00:31:43;101024.84;;;7.42;100.00
35151;BME280;55720;51.972;4.624;2022-11-15T00:34:09;100982.56;;;7.40;100.00
35151;BME280;55720;51.972;4.624;2022-11-15T00:36:35;101014.03;;;7.37;100.00
35151;BME280;55720;51.972;4.624;2022-11-15T00:39:00;101019.75;;;7.50;100.00
35151;BME280;55720;51.972;4.624;2022-11-15T00:41:28;101017.06;;;7.36;100.00
35151;BME280;55720;51.972;4.624;2022-11-15T00:43:53;101015.13;;;7.50;100.00
35151;BME280;55720;51.972;4.624;2022-11-15T00:46:18;101017.25;;;7.39;100.00
35151;BME280;55720;51.972;4.624;2022-11-15T00:48:44;101024.97;;;7.37;100.00
35151;BME280;55720;51.972;4.624;2022-11-15T00:51:09;101033.00;;;7.56;100.00
35151;BME280;55720;51.972;4.624;2022-11-15T00:53:35;101025.63;;;7.57;100.00
35151;BME280;55720;51.972;4.624;2022-11-15T00:56:00;101042.00;;;7.57;100.00
35151;BME280;55720;51.972;4.624;2022-11-15T00:58:25;101049.38;;;7.70;100.00
35151;BME280;55720;51.972;4.624;2022-11-15T01:00:51;101047.75;;;7.69;100.00
35151;BME280;55720;51.972;4.624;2022-11-15T01:03:16;101037.31;;;7.71;100.00
35151;BME280;55720;51.972;4.624;2022-11-15T01:05:41;101055.34;;;7.72;100.00
35151;BME280;55720;51.972;4.624;2022-11-15T01:08:12;101052.50;;;7.77;100.00
35151;BME280;55720;51.972;4.624;2022-11-15T01:10:37;101037.69;;;7.78;100.00
35151;BME280;55720;51.972;4.624;2022-11-15T01:13:02;101041.31;;;7.87;100.00
35151;BME280;55720;51.972;4.624;2022-11-15T01:15:28;101036.03;;;7.90;100.00
35151;BME280;55720;51.972;4.624;2022-11-15T01:17:53;101018.34;;;7.88;100.00
35151;BME280;55720;51.972;4.624;2022-11-15T01:20:18;101006.16;;;7.94;100.00
35151;BME280;55720;51.972;4.624;2022-11-15T01:22:44;101016.00;;;7.81;100.00
35151;BME280;55720;51.972;4.624;2022-11-15T01:25:09;101028.50;;;7.96;100.00
35151;BME280;55720;51.972;4.624;2022-11-15T01:27:34;101034.94;;;7.91;100.00
35151;BME280;55720;51.972;4.624;2022-11-15T01:30:00;101034.69;;;8.02;100.00
35151;BME280;55720;51.972;4.624;2022-11-15T01:32:25;101028.84;;;7.95;100.00
35151;BME280;55720;51.972;4.624;2022-11-15T01:34:50;101030.75;;;7.94;100.00
35151;BME280;55720;51.972;4.624;2022-11-15T01:37:16;101016.47;;;7.97;100.00
35151;BME280;55720;51.972;4.624;2022-11-15T01:39:41;101027.66;;;8.09;100.00
35151;BME280;55720;51.972;4.624;2022-11-15T01:42:12;101029.69;;;8.04;100.00
35151;BME280;55720;51.972;4.624;2022-11-15T01:49:57;101023.22;;;8.22;100.00
35151;BME280;55720;51.972;4.624;2022-11-15T01:52:26;101010.88;;;8.24;100.00
35151;BME280;55720;51.972;4.624;2022-11-15T01:54:58;101018.22;;;8.37;100.00
35151;BME280;55720;51.972;4.624;2022-11-15T01:57:26;101012.69;;;8.29;100.00
35151;BME280;55720;51.972;4.624;2022-11-15T01:59:51;101015.22;;;8.25;100.00
35151;BME280;55720;51.972;4.624;2022-11-15T02:02:17;101009.25;;;8.23;100.00
35151;BME280;55720;51.972;4.624;2022-11-15T02:04:45;101008.94;;;8.25;100.00
35151;BME280;55720;51.972;4.624;2022-11-15T02:07:14;101005.84;;;8.40;100.00
35151;BME280;55720;51.972;4.624;2022-11-15T02:09:41;100993.31;;;8.48;100.00
35151;BME280;55720;51.972;4.624;2022-11-15T02:12:08;100993.78;;;8.41;100.00
35151;BME280;55720;51.972;4.624;2022-11-15T02:14:38;100988.19;;;8.46;100.00
35151;BME280;55720;51.972;4.624;2022-11-15T02:28:16;100981.84;;;8.68;100.00
35151;BME280;55720;51.972;4.624;2022-11-15T02:34:05;100959.81;;;8.81;100.00
35151;BME280;55720;51.972;4.624;2022-11-15T02:36:43;100962.38;;;8.78;100.00
35151;BME280;55720;51.972;4.624;2022-11-15T02:39:23;100960.47;;;8.87;100.00
35151;BME280;55720;51.972;4.624;2022-11-15T02:42:09;100961.94;;;8.93;100.00
35151;BME280;55720;51.972;4.624;2022-11-15T02:44:57;100952.75;;;8.89;100.00
35151;BME280;55720;51.972;4.624;2022-11-15T02:47:24;100961.13;;;8.93;100.00
35151;BME280;55720;51.972;4.624;2022-11-15T02:49:54;100965.50;;;9.02;100.00
35151;BME280;55720;51.972;4.624;2022-11-15T02:52:23;100964.38;;;9.03;100.00
35151;BME280;55720;51.972;4.624;2022-11-15T02:54:55;100968.56;;;9.09;100.00
35151;BME280;55720;51.972;4.624;2022-11-15T03:00:27;100960.38;;;9.18;100.00
35151;BME280;55720;51.972;4.624;2022-11-15T03:08:30;100962.66;;;9.42;100.00
35151;BME280;55720;51.972;4.624;2022-11-15T03:11:05;100959.44;;;9.39;100.00
35151;BME280;55720;51.972;4.624;2022-11-15T03:16:56;100954.59;;;9.54;100.00
35151;BME280;55720;51.972;4.624;2022-11-15T03:19:26;100959.28;;;9.62;100.00
35151;BME280;55720;51.972;4.624;2022-11-15T03:21:55;100961.53;;;9.68;100.00
35151;BME280;55720;51.972;4.624;2022-11-15T03:24:23;100962.03;;;9.79;100.00
35151;BME280;55720;51.972;4.624;2022-11-15T03:26:52;100966.84;;;9.73;100.00
35151;BME280;55720;51.972;4.624;2022-11-15T03:29:29;100974.09;;;9.78;100.00
35151;BME280;55720;51.972;4.624;2022-11-15T03:32:02;100967.66;;;9.74;100.00
35151;BME280;55720;51.972;4.624;2022-11-15T03:34:42;100973.28;;;9.77;100.00
35151;BME280;55720;51.972;4.624;2022-11-15T03:37:10;100959.94;;;9.76;100.00
35151;BME280;55720;51.972;4.624;2022-11-15T03:39:38;100965.72;;;9.83;100.00
35151;BME280;55720;51.972;4.624;2022-11-15T03:44:50;100979.91;;;9.94;100.00
35151;BME280;55720;51.972;4.624;2022-11-15T03:47:23;100966.19;;;9.94;100.00
35151;BME280;55720;51.972;4.624;2022-11-15T03:49:52;100975.69;;;9.96;100.00
35151;BME280;55720;51.972;4.624;2022-11-15T03:52:21;100977.28;;;10.06;100.00
35151;BME280;55720;51.972;4.624;2022-11-15T03:54:55;100968.59;;;10.04;100.00
35151;BME280;55720;51.972;4.624;2022-11-15T03:57:21;100951.97;;;10.09;100.00
35151;BME280;55720;51.972;4.624;2022-11-15T03:59:46;100959.88;;;10.10;100.00
35151;BME280;55720;51.972;4.624;2022-11-15T04:02:12;100943.09;;;10.03;100.00
35151;BME280;55720;51.972;4.624;2022-11-15T04:04:38;100945.84;;;10.03;100.00
35151;BME280;55720;51.972;4.624;2022-11-15T04:07:06;100946.66;;;10.12;100.00
35151;BME280;55720;51.972;4.624;2022-11-15T04:09:32;100945.03;;;10.11;100.00
35151;BME280;55720;51.972;4.624;2022-11-15T04:11:57;100947.47;;;10.13;100.00
35151;BME280;55720;51.972;4.624;2022-11-15T04:14:22;100944.41;;;10.14;100.00
35151;BME280;55720;51.972;4.624;2022-11-15T04:16:48;100939.22;;;10.13;100.00
35151;BME280;55720;51.972;4.624;2022-11-15T04:19:13;100921.59;;;10.14;100.00
35151;BME280;55720;51.972;4.624;2022-11-15T04:21:57;100918.72;;;10.19;100.00
35151;BME280;55720;51.972;4.624;2022-11-15T04:24:41;100919.84;;;10.26;100.00
35151;BME280;55720;51.972;4.624;2022-11-15T04:27:06;100919.69;;;10.23;100.00
35151;BME280;55720;51.972;4.624;2022-11-15T04:29:32;100925.31;;;10.26;100.00
35151;BME280;55720;51.972;4.624;2022-11-15T04:32:02;100922.22;;;10.36;100.00
35151;BME280;55720;51.972;4.624;2022-11-15T04:34:27;100926.22;;;10.39;100.00
35151;BME280;55720;51.972;4.624;2022-11-15T04:36:53;100926.72;;;10.41;100.00
35151;BME280;55720;51.972;4.624;2022-11-15T04:39:37;100928.00;;;10.44;100.00
35151;BME280;55720;51.972;4.624;2022-11-15T04:42:02;100931.34;;;10.49;100.00
35151;BME280;55720;51.972;4.624;2022-11-15T04:44:27;100939.25;;;10.59;100.00
35151;BME280;55720;51.972;4.624;2022-11-15T04:46:53;100945.88;;;10.58;100.00
35151;BME280;55720;51.972;4.624;2022-11-15T04:49:18;100949.75;;;10.57;100.00
35151;BME280;55720;51.972;4.624;2022-11-15T04:51:44;100944.75;;;10.59;100.00
35151;BME280;55720;51.972;4.624;2022-11-15T04:54:09;100947.94;;;10.61;100.00
35151;BME280;55720;51.972;4.624;2022-11-15T04:56:35;100949.56;;;10.62;100.00
35151;BME280;55720;51.972;4.624;2022-11-15T04:59:00;100953.94;;;10.63;100.00
35151;BME280;55720;51.972;4.624;2022-11-15T05:01:25;100956.63;;;10.72;100.00
35151;BME280;55720;51.972;4.624;2022-11-15T05:03:51;100954.38;;;10.74;100.00
35151;BME280;55720;51.972;4.624;2022-11-15T05:06:35;100950.47;;;10.75;100.00
35151;BME280;55720;51.972;4.624;2022-11-15T05:09:00;100949.00;;;10.77;100.00
35151;BME280;55720;51.972;4.624;2022-11-15T05:11:26;100957.44;;;10.72;100.00
35151;BME280;55720;51.972;4.624;2022-11-15T05:13:53;100941.09;;;10.76;100.00
35151;BME280;55720;51.972;4.624;2022-11-15T05:16:19;100948.94;;;10.86;100.00
35151;BME280;55720;51.972;4.624;2022-11-15T05:18:44;100946.88;;;10.83;100.00
35151;BME280;55720;51.972;4.624;2022-11-15T05:21:12;100922.78;;;10.89;100.00
35151;BME280;55720;51.972;4.624;2022-11-15T05:23:39;100934.75;;;10.84;100.00
35151;BME280;55720;51.972;4.624;2022-11-15T05:26:06;100916.13;;;10.90;100.00
35151;BME280;55720;51.972;4.624;2022-11-15T05:28:32;100909.38;;;10.87;100.00
35151;BME280;55720;51.972;4.624;2022-11-15T05:31:02;100904.00;;;10.91;100.00
35151;BME280;55720;51.972;4.624;2022-11-15T05:33:28;100892.88;;;10.87;100.00
35151;BME280;55720;51.972;4.624;2022-11-15T05:36:19;100883.66;;;10.92;100.00
35151;BME280;55720;51.972;4.624;2022-11-15T05:38:45;100874.19;;;10.80;100.00
35151;BME280;55720;51.972;4.624;2022-11-15T05:41:12;100868.97;;;10.88;100.00
35151;BME280;55720;51.972;4.624;2022-11-15T05:43:39;100868.69;;;10.80;100.00
35151;BME280;55720;51.972;4.624;2022-11-15T05:46:05;100864.34;;;10.79;100.00
35151;BME280;55720;51.972;4.624;2022-11-15T05:48:32;100849.78;;;10.79;100.00
35151;BME280;55720;51.972;4.624;2022-11-15T05:50:59;100861.59;;;10.79;100.00
35151;BME280;55720;51.972;4.624;2022-11-15T05:53:25;100848.03;;;10.74;100.00
35151;BME280;55720;51.972;4.624;2022-11-15T05:55:51;100840.81;;;10.70;100.00
35151;BME280;55720;51.972;4.624;2022-11-15T05:58:17;100839.03;;;10.74;100.00
35151;BME280;55720;51.972;4.624;2022-11-15T06:00:43;100833.13;;;10.63;100.00
35151;BME280;55720;51.972;4.624;2022-11-15T06:03:09;100838.53;;;10.72;100.00
35151;BME280;55720;51.972;4.624;2022-11-15T06:05:34;100835.19;;;10.66;100.00
35151;BME280;55720;51.972;4.624;2022-11-15T06:08:00;100832.91;;;10.68;100.00
35151;BME280;55720;51.972;4.624;2022-11-15T06:10:25;100835.06;;;10.63;100.00
35151;BME280;55720;51.972;4.624;2022-11-15T06:13:01;100836.28;;;10.74;100.00
35151;BME280;55720;51.972;4.624;2022-11-15T06:15:27;100838.06;;;10.70;100.00
35151;BME280;55720;51.972;4.624;2022-11-15T06:17:56;100833.72;;;10.69;100.00
35151;BME280;55720;51.972;4.624;2022-11-15T06:20:23;100827.94;;;10.62;100.00
35151;BME280;55720;51.972;4.624;2022-11-15T06:22:49;100818.09;;;10.61;100.00
35151;BME280;55720;51.972;4.624;2022-11-15T06:25:14;100816.69;;;10.55;100.00
35151;BME280;55720;51.972;4.624;2022-11-15T06:27:40;100812.13;;;10.38;100.00
35151;BME280;55720;51.972;4.624;2022-11-15T06:30:05;100821.03;;;10.26;100.00
35151;BME280;55720;51.972;4.624;2022-11-15T06:32:31;100798.94;;;10.23;100.00
35151;BME280;55720;51.972;4.624;2022-11-15T06:34:56;100792.88;;;10.09;100.00
35151;BME280;55720;51.972;4.624;2022-11-15T06:37:22;100800.44;;;10.12;100.00
35151;BME280;55720;51.972;4.624;2022-11-15T06:39:47;100795.47;;;10.05;100.00
35151;BME280;55720;51.972;4.624;2022-11-15T06:42:12;100797.28;;;9.93;100.00
35151;BME280;55720;51.972;4.624;2022-11-15T06:44:38;100790.38;;;9.86;100.00
35151;BME280;55720;51.972;4.624;2022-11-15T06:47:03;100793.44;;;9.85;100.00
35151;BME280;55720;51.972;4.624;2022-11-15T06:49:28;100801.50;;;9.90;100.00
35151;BME280;55720;51.972;4.624;2022-11-15T06:51:54;100814.72;;;9.88;100.00
35151;BME280;55720;51.972;4.624;2022-11-15T06:54:19;100822.44;;;9.95;100.00
35151;BME280;55720;51.972;4.624;2022-11-15T06:56:45;100815.00;;;9.95;100.00
35151;BME280;55720;51.972;4.624;2022-11-15T06:59:11;100819.56;;;9.91;100.00
35151;BME280;55720;51.972;4.624;2022-11-15T07:01:36;100827.59;;;9.96;100.00
35151;BME280;55720;51.972;4.624;2022-11-15T07:04:02;100824.47;;;10.06;100.00
35151;BME280;55720;51.972;4.624;2022-11-15T07:06:27;100816.25;;;10.06;100.00
35151;BME280;55720;51.972;4.624;2022-11-15T07:08:52;100821.72;;;10.06;100.00
35151;BME280;55720;51.972;4.624;2022-11-15T07:11:18;100819.00;;;10.15;100.00
35151;BME280;55720;51.972;4.624;2022-11-15T07:13:43;100816.06;;;10.11;100.00
35151;BME280;55720;51.972;4.624;2022-11-15T07:16:11;100809.47;;;10.12;100.00
35151;BME280;55720;51.972;4.624;2022-11-15T07:18:38;100809.28;;;10.17;100.00
35151;BME280;55720;51.972;4.624;2022-11-15T07:21:06;100799.94;;;10.18;100.00
35151;BME280;55720;51.972;4.624;2022-11-15T07:23:32;100798.28;;;10.26;100.00
35151;BME280;55720;51.972;4.624;2022-11-15T07:25:58;100796.81;;;10.28;100.00
35151;BME280;55720;51.972;4.624;2022-11-15T07:28:24;100790.28;;;10.42;100.00
35151;BME280;55720;51.972;4.624;2022-11-15T07:30:50;100780.75;;;10.39;100.00
35151;BME280;55720;51.972;4.624;2022-11-15T07:33:15;100763.34;;;10.35;100.00
35151;BME280;55720;51.972;4.624;2022-11-15T07:35:40;100758.81;;;10.39;100.00
35151;BME280;55720;51.972;4.624;2022-11-15T07:38:08;100738.00;;;10.38;100.00
35151;BME280;55720;51.972;4.624;2022-11-15T07:40:33;100702.78;;;10.19;100.00
35151;BME280;55720;51.972;4.624;2022-11-15T07:43:04;100699.91;;;10.16;100.00
35151;BME280;55720;51.972;4.624;2022-11-15T07:45:30;100688.34;;;10.02;100.00
35151;BME280;55720;51.972;4.624;2022-11-15T07:47:55;100689.31;;;9.97;100.00
35151;BME280;55720;51.972;4.624;2022-11-15T07:50:22;100680.97;;;9.94;100.00
35151;BME280;55720;51.972;4.624;2022-11-15T07:52:53;100680.97;;;9.94;100.00
35151;BME280;55720;51.972;4.624;2022-11-15T07:55:19;100674.38;;;9.86;100.00
35151;BME280;55720;51.972;4.624;2022-11-15T07:57:44;100671.00;;;9.80;100.00
35151;BME280;55720;51.972;4.624;2022-11-15T08:00:10;100669.22;;;9.84;100.00
35151;BME280;55720;51.972;4.624;2022-11-15T08:02:35;100659.72;;;9.82;100.00
35151;BME280;55720;51.972;4.624;2022-11-15T08:05:01;100657.78;;;9.82;100.00
35151;BME280;55720;51.972;4.624;2022-11-15T08:07:29;100656.66;;;9.83;100.00
35151;BME280;55720;51.972;4.624;2022-11-15T08:09:55;100655.38;;;9.81;100.00
35151;BME280;55720;51.972;4.624;2022-11-15T08:12:20;100656.19;;;9.81;100.00
35151;BME280;55720;51.972;4.624;2022-11-15T08:14:45;100652.63;;;9.81;100.00
35151;BME280;55720;51.972;4.624;2022-11-15T08:17:11;100660.41;;;10.00;100.00
35151;BME280;55720;51.972;4.624;2022-11-15T08:19:36;100648.41;;;10.13;100.00
35151;BME280;55720;51.972;4.624;2022-11-15T08:22:01;100646.56;;;10.25;100.00
35151;BME280;55720;51.972;4.624;2022-11-15T08:24:27;100642.06;;;10.21;100.00
35151;BME280;55720;51.972;4.624;2022-11-15T08:26:52;100634.19;;;10.19;100.00
35151;BME280;55720;51.972;4.624;2022-11-15T08:29:17;100626.34;;;10.30;100.00
35151;BME280;55720;51.972;4.624;2022-11-15T08:31:43;100618.66;;;10.23;100.00
35151;BME280;55720;51.972;4.624;2022-11-15T08:34:08;100611.41;;;10.40;100.00
35151;BME280;55720;51.972;4.624;2022-11-15T08:36:33;100600.50;;;10.31;100.00
35151;BME280;55720;51.972;4.624;2022-11-15T08:38:59;100601.03;;;10.45;100.00
35151;BME280;55720;51.972;4.624;2022-11-15T08:41:28;100590.63;;;10.51;100.00
35151;BME280;55720;51.972;4.624;2022-11-15T08:43:55;100584.72;;;10.61;100.00
35151;BME280;55720;51.972;4.624;2022-11-15T08:46:20;100568.31;;;10.85;100.00
35151;BME280;55720;51.972;4.624;2022-11-15T08:48:46;100552.50;;;10.82;100.00
35151;BME280;55720;51.972;4.624;2022-11-15T08:51:11;100528.69;;;10.62;100.00
35151;BME280;55720;51.972;4.624;2022-11-15T08:53:37;100518.75;;;10.81;100.00
35151;BME280;55720;51.972;4.624;2022-11-15T08:56:02;100503.53;;;10.72;100.00
35151;BME280;55720;51.972;4.624;2022-11-15T08:58:28;100490.72;;;10.76;100.00
35151;BME280;55720;51.972;4.624;2022-11-15T09:00:54;100480.66;;;10.80;100.00
35151;BME280;55720;51.972;4.624;2022-11-15T09:03:20;100456.63;;;10.77;100.00
35151;BME280;55720;51.972;4.624;2022-11-15T09:05:45;100452.59;;;10.74;100.00
35151;BME280;55720;51.972;4.624;2022-11-15T09:08:10;100448.13;;;10.82;100.00
35151;BME280;55720;51.972;4.624;2022-11-15T09:10:37;100432.69;;;10.90;100.00
35151;BME280;55720;51.972;4.624;2022-11-15T09:13:03;100420.47;;;10.99;100.00
35151;BME280;55720;51.972;4.624;2022-11-15T09:15:29;100416.53;;;11.12;100.00
35151;BME280;55720;51.972;4.624;2022-11-15T09:17:58;100391.09;;;11.15;100.00
35151;BME280;55720;51.972;4.624;2022-11-15T09:20:23;100383.44;;;11.21;100.00
35151;BME280;55720;51.972;4.624;2022-11-15T09:22:48;100373.72;;;11.11;100.00
35151;BME280;55720;51.972;4.624;2022-11-15T09:25:14;100358.94;;;11.16;100.00
35151;BME280;55720;51.972;4.624;2022-11-15T09:27:39;100349.91;;;11.15;100.00
35151;BME280;55720;51.972;4.624;2022-11-15T09:30:05;100330.84;;;11.22;100.00
35151;BME280;55720;51.972;4.624;2022-11-15T09:32:30;100336.56;;;11.29;100.00
35151;BME280;55720;51.972;4.624;2022-11-15T09:34:57;100313.13;;;11.48;100.00
35151;BME280;55720;51.972;4.624;2022-11-15T09:37:22;100308.00;;;11.62;100.00
35151;BME280;55720;51.972;4.624;2022-11-15T09:39:48;100292.00;;;11.79;100.00
35151;BME280;55720;51.972;4.624;2022-11-15T09:45:58;100291.75;;;11.84;100.00
35151;BME280;55720;51.972;4.624;2022-11-15T09:48:50;100297.28;;;12.00;100.00
35151;BME280;55720;51.972;4.624;2022-11-15T09:51:27;100300.28;;;11.95;100.00
35151;BME280;55720;51.972;4.624;2022-11-15T09:56:43;100290.94;;;11.84;100.00
35151;BME280;55720;51.972;4.624;2022-11-15T10:04:29;100277.38;;;12.07;100.00
35151;BME280;55720;51.972;4.624;2022-11-15T10:09:46;100280.22;;;12.10;100.00
35151;BME280;55720;51.972;4.624;2022-11-15T10:12:13;100282.59;;;12.27;100.00
35151;BME280;55720;51.972;4.624;2022-11-15T10:14:39;100276.44;;;12.34;100.00
35151;BME280;55720;51.972;4.624;2022-11-15T10:22:44;100287.59;;;12.57;100.00
35151;BME280;55720;51.972;4.624;2022-11-15T10:25:14;100291.47;;;12.71;100.00
35151;BME280;55720;51.972;4.624;2022-11-15T10:27:41;100295.38;;;12.70;100.00
35151;BME280;55720;51.972;4.624;2022-11-15T10:30:17;100283.56;;;12.70;100.00
35151;BME280;55720;51.972;4.624;2022-11-15T10:32:44;100291.63;;;12.78;100.00
35151;BME280;55720;51.972;4.624;2022-11-15T10:35:30;100285.25;;;12.74;100.00
35151;BME280;55720;51.972;4.624;2022-11-15T10:38:10;100282.56;;;12.78;100.00
35151;BME280;55720;51.972;4.624;2022-11-15T10:40:36;100275.53;;;12.80;100.00
35151;BME280;55720;51.972;4.624;2022-11-15T10:43:14;100290.09;;;12.81;100.00
35151;BME280;55720;51.972;4.624;2022-11-15T10:45:40;100273.56;;;12.81;100.00
35151;BME280;55720;51.972;4.624;2022-11-15T10:50:39;100286.25;;;12.66;100.00
35151;BME280;55720;51.972;4.624;2022-11-15T10:53:18;100287.81;;;12.83;100.00
35151;BME280;55720;51.972;4.624;2022-11-15T10:55:47;100279.16;;;12.65;100.00
35151;BME280;55720;51.972;4.624;2022-11-15T10:58:36;100282.00;;;12.69;100.00
35151;BME280;55720;51.972;4.624;2022-11-15T11:01:13;100288.69;;;12.52;100.00
35151;BME280;55720;51.972;4.624;2022-11-15T11:03:40;100284.13;;;12.60;100.00
35151;BME280;55720;51.972;4.624;2022-11-15T11:08:31;100265.22;;;13.12;100.00
35151;BME280;55720;51.972;4.624;2022-11-15T11:11:00;100255.00;;;13.13;100.00
35151;BME280;55720;51.972;4.624;2022-11-15T11:13:37;100258.88;;;12.93;100.00
35151;BME280;55720;51.972;4.624;2022-11-15T11:24:18;100239.75;;;12.46;100.00
35151;BME280;55720;51.972;4.624;2022-11-15T11:29:49;100226.75;;;12.81;100.00
35151;BME280;55720;51.972;4.624;2022-11-15T11:32:40;100226.31;;;12.79;100.00
35151;BME280;55720;51.972;4.624;2022-11-15T11:35:24;100220.97;;;12.86;100.00
35151;BME280;55720;51.972;4.624;2022-11-15T11:38:18;100227.16;;;13.02;100.00
35151;BME280;55720;51.972;4.624;2022-11-15T11:41:04;100229.34;;;12.74;100.00
35151;BME280;55720;51.972;4.624;2022-11-15T11:43:55;100227.69;;;12.89;100.00
35151;BME280;55720;51.972;4.624;2022-11-15T11:49:10;100223.63;;;12.82;100.00
35151;BME280;55720;51.972;4.624;2022-11-15T11:51:43;100195.34;;;13.05;100.00
35151;BME280;55720;51.972;4.624;2022-11-15T11:54:19;100201.22;;;13.03;100.00
35151;BME280;55720;51.972;4.624;2022-11-15T11:56:45;100198.19;;;13.27;100.00
35151;BME280;55720;51.972;4.624;2022-11-15T11:59:48;100198.19;;;13.08;100.00
35151;BME280;55720;51.972;4.624;2022-11-15T12:02:27;100188.69;;;13.48;100.00
35151;BME280;55720;51.972;4.624;2022-11-15T12:05:01;100185.88;;;13.67;100.00
35151;BME280;55720;51.972;4.624;2022-11-15T12:07:31;100183.97;;;13.97;100.00
35151;BME280;55720;51.972;4.624;2022-11-15T12:12:49;100173.13;;;13.82;100.00
35151;BME280;55720;51.972;4.624;2022-11-15T12:15:24;100169.09;;;13.79;100.00
35151;BME280;55720;51.972;4.624;2022-11-15T12:17:51;100175.13;;;13.62;100.00
35151;BME280;55720;51.972;4.624;2022-11-15T12:20:20;100161.25;;;14.07;100.00
35151;BME280;55720;51.972;4.624;2022-11-15T12:22:59;100163.41;;;14.17;100.00
35151;BME280;55720;51.972;4.624;2022-11-15T12:28:11;100152.50;;;14.02;100.00
35151;BME280;55720;51.972;4.624;2022-11-15T12:33:37;100153.41;;;14.09;100.00
35151;BME280;55720;51.972;4.624;2022-11-15T12:36:11;100161.59;;;14.02;100.00
35151;BME280;55720;51.972;4.624;2022-11-15T12:41:34;100149.69;;;13.98;100.00
35151;BME280;55720;51.972;4.624;2022-11-15T12:44:00;100141.16;;;14.07;100.00
35151;BME280;55720;51.972;4.624;2022-11-15T12:59:52;100127.63;;;12.84;100.00
35151;BME280;55720;51.972;4.624;2022-11-15T13:02:26;100130.13;;;12.70;100.00
35151;BME280;55720;51.972;4.624;2022-11-15T13:04:55;100125.41;;;12.71;100.00
35151;BME280;55720;51.972;4.624;2022-11-15T13:17:55;100102.19;;;12.91;100.00
35151;BME280;55720;51.972;4.624;2022-11-15T13:20:27;100095.25;;;12.78;100.00
35151;BME280;55720;51.972;4.624;2022-11-15T13:30:49;100081.50;;;12.59;100.00
35151;BME280;55720;51.972;4.624;2022-11-15T13:33:35;100080.28;;;12.56;100.00
35151;BME280;55720;51.972;4.624;2022-11-15T13:36:14;100067.72;;;12.59;100.00
35151;BME280;55720;51.972;4.624;2022-11-15T13:38:41;100074.19;;;12.47;100.00
35151;BME280;55720;51.972;4.624;2022-11-15T13:41:17;100069.13;;;12.49;100.00
35151;BME280;55720;51.972;4.624;2022-11-15T13:43:43;100065.66;;;12.33;100.00
35151;BME280;55720;51.972;4.624;2022-11-15T13:48:42;100061.31;;;12.32;100.00
35151;BME280;55720;51.972;4.624;2022-11-15T13:53:46;100048.16;;;12.45;100.00
35151;BME280;55720;51.972;4.624;2022-11-15T13:56:15;100057.75;;;12.51;100.00
35151;BME280;55720;51.972;4.624;2022-11-15T13:58:42;100040.56;;;12.38;100.00
35151;BME280;55720;51.972;4.624;2022-11-15T14:01:15;100046.59;;;12.24;100.00
35151;BME280;55720;51.972;4.624;2022-11-15T14:03:49;100025.66;;;12.39;100.00
35151;BME280;55720;51.972;4.624;2022-11-15T14:06:17;100020.31;;;12.27;100.00
35151;BME280;55720;51.972;4.624;2022-11-15T14:11:35;100011.09;;;12.19;100.00
35151;BME280;55720;51.972;4.624;2022-11-15T14:16:57;99996.34;;;12.27;100.00
35151;BME280;55720;51.972;4.624;2022-11-15T14:24:37;99975.44;;;12.46;100.00
35151;BME280;55720;51.972;4.624;2022-11-15T14:27:24;99974.44;;;12.34;100.00
35151;BME280;55720;51.972;4.624;2022-11-15T14:29:50;99974.38;;;12.31;100.00
35151;BME280;55720;51.972;4.624;2022-11-15T14:32:23;99969.69;;;12.31;100.00
35151;BME280;55720;51.972;4.624;2022-11-15T14:35:00;99960.19;;;12.29;100.00
35151;BME280;55720;51.972;4.624;2022-11-15T14:37:28;99956.66;;;12.28;100.00
35151;BME280;55720;51.972;4.624;2022-11-15T14:39:56;99950.06;;;12.33;100.00
35151;BME280;55720;51.972;4.624;2022-11-15T14:42:22;99947.47;;;12.21;100.00
35151;BME280;55720;51.972;4.624;2022-11-15T14:44:48;99935.72;;;12.24;100.00
35151;BME280;55720;51.972;4.624;2022-11-15T14:47:13;99927.03;;;12.22;100.00
35151;BME280;55720;51.972;4.624;2022-11-15T14:49:39;99927.41;;;12.20;100.00
35151;BME280;55720;51.972;4.624;2022-11-15T14:52:29;99922.91;;;12.12;100.00
35151;BME280;55720;51.972;4.624;2022-11-15T14:54:55;99924.97;;;12.15;100.00
35151;BME280;55720;51.972;4.624;2022-11-15T14:57:21;99921.75;;;12.13;100.00
35151;BME280;55720;51.972;4.624;2022-11-15T14:59:47;99910.34;;;12.11;100.00
35151;BME280;55720;51.972;4.624;2022-11-15T15:02:21;99906.03;;;12.14;100.00